Time;durP1;ratioP1;P1;durP2;ratioP2;P2;SDS_P1;SDS_P2;PMS_P1;PMS_P2;Temp;Humidity;BMP_temperature;BMP_pressure;BME280_temperature;BME280_humidity;BME280_pressure;Samples;Min_cycle;Max_cycle;Signal;HPM_P1;HPM_P2
2023/04/18 00:03:30;;;;;;;;;;;6.90;1.00;;;;;;5088261;28;19916;-80
2023/04/18 00:08:58;;;;;;;;;;;6.80;1.00;;;;;;5075104;28;19910;-80
2023/04/18 00:11:24;;;;;;;;;;;6.80;1.00;;;;;;5074915;28;19999;-79
2023/04/18 00:13:49;;;;;;;;;;;6.80;1.00;;;;;;5074764;28;19926;-78
2023/04/18 00:25:24;;;;;;;;;;;6.70;1.00;;;;;;5076114;28;19911;-78
2023/04/18 00:34:30;;;;;;;;;;;6.60;1.00;;;;;;5094729;28;19996;-79
2023/04/18 00:37:30;;;;;;;;;;;6.60;1.00;;;;;;5094811;28;19957;-79
2023/04/18 00:40:00;;;;;;;;;;;6.50;1.00;;;;;;5094994;28;19911;-79
2023/04/18 00:42:30;;;;;;;;;;;6.50;1.00;;;;;;5095103;28;19904;-79
2023/04/18 00:45:30;;;;;;;;;;;6.50;1.00;;;;;;5074384;28;20351;-79
2023/04/18 00:48:30;;;;;;;;;;;6.40;1.00;;;;;;5074197;28;19954;-79
2023/04/18 00:53:58;;;;;;;;;;;6.40;1.00;;;;;;5094604;28;19953;-79
2023/04/18 00:59:26;;;;;;;;;;;6.40;1.00;;;;;;5094306;28;19930;-79
2023/04/18 01:02:00;;;;;;;;;;;6.30;1.00;;;;;;5094391;28;19904;-78
2023/04/18 01:05:00;;;;;;;;;;;6.30;1.00;;;;;;5094451;28;19904;-79
2023/04/18 01:08:00;;;;;;;;;;;6.30;1.00;;;;;;5076390;28;19904;-79
2023/04/18 01:10:27;;;;;;;;;;;6.30;1.00;;;;;;5094785;28;20334;-75
2023/04/18 01:13:08;;;;;;;;;;;6.30;1.00;;;;;;5094448;28;19911;-75
2023/04/18 01:15:35;;;;;;;;;;;6.30;1.00;;;;;;5084724;28;19912;-74
2023/04/18 01:18:02;;;;;;;;;;;6.30;1.00;;;;;;5074758;28;19954;-74
2023/04/18 01:20:28;;;;;;;;;;;6.30;1.00;;;;;;5056812;28;19909;-74
2023/04/18 01:22:54;;;;;;;;;;;6.20;1.00;;;;;;5074044;28;19915;-74
2023/04/18 01:25:20;;;;;;;;;;;6.20;1.00;;;;;;5060063;28;20256;-74
2023/04/18 01:30:48;;;;;;;;;;;6.20;1.00;;;;;;5093952;28;19927;-78
2023/04/18 01:33:30;;;;;;;;;;;6.20;1.00;;;;;;5094057;28;20343;-79
2023/04/18 01:42:02;;;;;;;;;;;6.20;1.00;;;;;;5094362;28;19990;-75
2023/04/18 01:44:27;;;;;;;;;;;6.20;1.00;;;;;;5094118;28;19999;-75
2023/04/18 01:46:53;;;;;;;;;;;6.20;1.00;;;;;;5085296;28;20508;-74
2023/04/18 01:49:24;;;;;;;;;;;6.10;1.00;;;;;;5092683;28;19927;-74
2023/04/18 01:51:54;;;;;;;;;;;6.20;1.00;;;;;;5073727;28;20006;-74
2023/04/18 01:54:30;;;;;;;;;;;6.10;1.00;;;;;;5073830;28;19904;-74
2023/04/18 01:57:30;;;;;;;;;;;6.10;1.00;;;;;;5074423;28;19912;-79
2023/04/18 02:02:58;;;;;;;;;;;6.10;1.00;;;;;;5093682;28;20286;-79
2023/04/18 02:06:00;;;;;;;;;;;6.00;1.00;;;;;;5097930;28;19904;-79
2023/04/18 02:09:00;;;;;;;;;;;6.00;1.00;;;;;;5097543;28;19911;-79
2023/04/18 02:12:01;;;;;;;;;;;6.00;1.00;;;;;;5098250;28;19908;-78
2023/04/18 02:14:37;;;;;;;;;;;5.90;1.00;;;;;;5097408;28;20036;-79
2023/04/18 02:17:05;;;;;;;;;;;5.90;1.00;;;;;;5097378;28;19920;-80
2023/04/18 02:25:36;;;;;;;;;;;5.80;1.00;;;;;;5097076;28;19912;-79
2023/04/18 02:28:02;;;;;;;;;;;5.70;1.00;;;;;;5097049;28;19908;-74
2023/04/18 02:30:28;;;;;;;;;;;5.70;1.00;;;;;;5097376;28;19911;-74
2023/04/18 02:33:06;;;;;;;;;;;5.70;1.00;;;;;;5094838;28;19911;-75
2023/04/18 02:35:31;;;;;;;;;;;5.60;1.00;;;;;;5076795;28;19916;-75
2023/04/18 02:37:57;;;;;;;;;;;5.60;1.00;;;;;;5086307;28;19916;-74
2023/04/18 02:40:23;;;;;;;;;;;5.60;1.00;;;;;;5076914;28;19949;-74
2023/04/18 02:43:01;;;;;;;;;;;5.60;1.00;;;;;;5077764;28;20325;-79
2023/04/18 02:45:48;;;;;;;;;;;5.60;1.00;;;;;;5078048;28;19970;-80
2023/04/18 02:48:30;;;;;;;;;;;5.60;1.00;;;;;;5090031;28;19912;-79
2023/04/18 02:51:30;;;;;;;;;;;5.50;1.00;;;;;;5076777;28;19994;-79
2023/04/18 02:54:30;;;;;;;;;;;5.50;1.00;;;;;;5076846;28;19927;-79
2023/04/18 02:57:00;;;;;;;;;;;5.60;1.00;;;;;;5076662;28;20050;-79
2023/04/18 03:00:00;;;;;;;;;;;5.60;1.00;;;;;;5076446;28;19977;-79
2023/04/18 03:05:28;;;;;;;;;;;5.70;1.00;;;;;;5077040;28;20385;-85
2023/04/18 03:10:57;;;;;;;;;;;5.60;1.00;;;;;;5076206;28;19962;-84
2023/04/18 03:14:00;;;;;;;;;;;5.60;1.00;;;;;;5074509;28;19912;-84
2023/04/18 03:16:25;;;;;;;;;;;5.70;1.00;;;;;;5058498;28;20314;-84
2023/04/18 03:19:00;;;;;;;;;;;5.60;1.00;;;;;;5058425;28;19912;-84
2023/04/18 03:24:28;;;;;;;;;;;5.60;1.00;;;;;;5091707;28;20011;-84
2023/04/18 03:27:00;;;;;;;;;;;5.60;1.00;;;;;;5074783;28;19931;-84
2023/04/18 03:30:00;;;;;;;;;;;5.60;1.00;;;;;;5058151;28;19987;-84
2023/04/18 03:33:01;;;;;;;;;;;5.60;1.00;;;;;;5058217;28;19958;-84
2023/04/18 03:35:30;;;;;;;;;;;5.60;1.00;;;;;;5058058;28;19957;-84
2023/04/18 03:41:30;;;;;;;;;;;5.60;1.00;;;;;;5075668;28;19911;-84
2023/04/18 03:44:00;;;;;;;;;;;5.60;1.00;;;;;;5076080;28;19953;-85
2023/04/18 03:47:00;;;;;;;;;;;5.60;1.00;;;;;;5057757;28;19908;-84
2023/04/18 03:52:28;;;;;;;;;;;5.70;1.00;;;;;;5095908;28;19982;-84
2023/04/18 03:55:30;;;;;;;;;;;5.70;1.00;;;;;;5077643;28;20289;-84
2023/04/18 03:58:00;;;;;;;;;;;5.70;1.00;;;;;;5096116;28;20397;-85
2023/04/18 04:01:00;;;;;;;;;;;5.70;1.00;;;;;;5077600;28;19904;-85
2023/04/18 04:03:26;;;;;;;;;;;5.70;1.00;;;;;;5095569;28;19998;-85
2023/04/18 04:06:00;;;;;;;;;;;5.70;1.00;;;;;;5077332;28;19915;-84
2023/04/18 04:12:01;;;;;;;;;;;5.60;1.00;;;;;;5095319;28;19958;-84
2023/04/18 04:14:37;;;;;;;;;;;5.70;1.00;;;;;;5078134;28;19911;-86
2023/04/18 04:17:02;;;;;;;;;;;5.60;1.00;;;;;;5077795;28;19955;-86
2023/04/18 04:20:00;;;;;;;;;;;5.70;1.00;;;;;;5072418;28;19915;-86
2023/04/18 04:22:31;;;;;;;;;;;5.70;1.00;;;;;;5059300;28;20243;-86
2023/04/18 04:25:32;;;;;;;;;;;5.60;1.00;;;;;;5075381;28;19931;-85
2023/04/18 04:28:01;;;;;;;;;;;5.60;1.00;;;;;;5057868;28;19916;-84
2023/04/18 04:34:00;;;;;;;;;;;5.60;1.00;;;;;;5074651;28;19911;-84
2023/04/18 04:36:42;;;;;;;;;;;5.70;1.00;;;;;;5060852;28;20006;-83
2023/04/18 04:39:30;;;;;;;;;;;5.60;1.00;;;;;;5094973;28;20370;-84
2023/04/18 04:45:01;;;;;;;;;;;5.60;1.00;;;;;;5095196;28;19911;-86
2023/04/18 04:48:00;;;;;;;;;;;5.60;1.00;;;;;;5065894;28;19908;-86
2023/04/18 04:51:00;;;;;;;;;;;5.60;1.00;;;;;;5075302;28;19909;-86
2023/04/18 04:54:00;;;;;;;;;;;5.60;1.00;;;;;;5074967;28;19910;-85
2023/04/18 04:56:30;;;;;;;;;;;5.60;1.00;;;;;;5057145;28;20256;-86
2023/04/18 04:59:00;;;;;;;;;;;5.70;1.00;;;;;;5074149;28;19908;-84
2023/04/18 05:02:00;;;;;;;;;;;5.80;1.00;;;;;;5093818;28;19904;-84
2023/04/18 05:04:25;;;;;;;;;;;5.90;1.00;;;;;;5056217;28;19911;-83
2023/04/18 05:07:00;;;;;;;;;;;6.10;1.00;;;;;;5074288;28;20017;-84
2023/04/18 05:09:42;;;;;;;;;;;6.20;1.00;;;;;;5056367;28;19905;-84
2023/04/18 05:15:11;;;;;;;;;;;6.50;1.00;;;;;;5073810;28;20306;-84
2023/04/18 05:20:40;;;;;;;;;;;6.90;1.00;;;;;;5088965;28;19911;-83
2023/04/18 05:23:30;;;;;;;;;;;7.00;1.00;;;;;;5076135;28;19913;-84
2023/04/18 05:26:00;;;;;;;;;;;7.20;1.00;;;;;;5074079;28;19904;-83
2023/04/18 05:28:30;;;;;;;;;;;7.30;1.00;;;;;;5068010;28;19904;-84
2023/04/18 05:34:00;;;;;;;;;;;7.60;1.00;;;;;;5078789;28;19915;-84
2023/04/18 05:37:00;;;;;;;;;;;7.80;1.00;;;;;;5067861;28;19904;-84
2023/04/18 05:40:00;;;;;;;;;;;7.90;1.00;;;;;;5079966;28;19990;-83
2023/04/18 05:45:30;;;;;;;;;;;8.20;1.00;;;;;;5077496;28;20486;-81
2023/04/18 05:48:00;;;;;;;;;;;8.30;1.00;;;;;;5077672;28;19943;-82
2023/04/18 05:51:00;;;;;;;;;;;8.50;1.00;;;;;;5077550;28;19994;-82
2023/04/18 05:54:00;;;;;;;;;;;8.60;1.00;;;;;;5077506;28;19958;-82
2023/04/18 05:57:00;;;;;;;;;;;8.70;1.00;;;;;;5077507;28;19958;-82
2023/04/18 05:59:30;;;;;;;;;;;8.80;1.00;;;;;;5077907;28;19920;-82
2023/04/18 06:02:30;;;;;;;;;;;9.00;1.00;;;;;;5077344;28;19988;-81
2023/04/18 06:08:36;;;;;;;;;;;9.20;1.00;;;;;;5077250;28;19912;-82
2023/04/18 06:11:32;;;;;;;;;;;9.20;1.00;;;;;;5082574;28;19959;-82
2023/04/18 06:14:00;;;;;;;;;;;9.30;1.00;;;;;;5095411;28;20400;-83
2023/04/18 06:16:30;;;;;;;;;;;9.40;1.00;;;;;;5073966;28;19947;-83
2023/04/18 06:19:01;;;;;;;;;;;9.50;1.00;;;;;;5081269;28;19908;-82
2023/04/18 06:21:54;;;;;;;;;;;9.50;1.00;;;;;;5083511;28;19908;-82
2023/04/18 06:28:00;;;;;;;;;;;9.60;1.00;;;;;;5076628;28;19916;-82
2023/04/18 06:30:30;;;;;;;;;;;9.60;1.00;;;;;;5078685;28;20016;-83
2023/04/18 06:33:30;;;;;;;;;;;9.70;1.00;;;;;;5075526;28;19904;-82
2023/04/18 06:36:30;;;;;;;;;;;9.60;1.00;;;;;;5076874;28;19904;-82
2023/04/18 06:39:30;;;;;;;;;;;9.70;1.00;;;;;;5076930;28;19912;-83
2023/04/18 06:41:57;;;;;;;;;;;9.70;1.00;;;;;;5076636;28;20025;-82
2023/04/18 06:44:34;;;;;;;;;;;9.80;1.00;;;;;;5077016;28;19904;-82
2023/04/18 06:47:00;;;;;;;;;;;9.90;1.00;;;;;;5083100;28;20355;-82
2023/04/18 06:49:30;;;;;;;;;;;9.90;1.00;;;;;;5076490;28;19999;-82
2023/04/18 06:52:30;;;;;;;;;;;9.90;1.00;;;;;;5087076;28;19908;-83
2023/04/18 06:55:30;;;;;;;;;;;9.80;1.00;;;;;;5096972;28;19904;-83
2023/04/18 06:58:07;;;;;;;;;;;9.90;1.00;;;;;;5096923;28;19957;-82
2023/04/18 07:00:36;;;;;;;;;;;9.90;1.00;;;;;;5097224;28;19904;-82
2023/04/18 07:03:08;;;;;;;;;;;9.90;1.00;;;;;;5096830;28;19908;-82
2023/04/18 07:05:37;;;;;;;;;;;10.00;1.00;;;;;;5073575;28;19905;-83
2023/04/18 07:08:12;;;;;;;;;;;10.10;1.00;;;;;;5076378;28;20003;-82
2023/04/18 07:10:38;;;;;;;;;;;10.20;1.00;;;;;;5076282;28;20008;-82
2023/04/18 07:16:08;;;;;;;;;;;10.40;1.00;;;;;;5076178;28;20421;-82
2023/04/18 07:18:42;;;;;;;;;;;10.50;1.00;;;;;;5076844;28;19978;-79
2023/04/18 07:21:08;;;;;;;;;;;10.50;1.00;;;;;;5081315;28;19912;-81
2023/04/18 07:23:34;;;;;;;;;;;10.50;1.00;;;;;;5086766;28;19915;-82
2023/04/18 07:26:01;;;;;;;;;;;10.60;1.00;;;;;;5083648;28;20007;-81
2023/04/18 07:28:27;;;;;;;;;;;10.70;1.00;;;;;;5085849;28;19917;-80
2023/04/18 07:30:54;;;;;;;;;;;10.90;1.00;;;;;;5075794;28;19911;-80
2023/04/18 07:33:20;;;;;;;;;;;11.00;1.00;;;;;;5075165;28;19966;-81
2023/04/18 07:35:45;;;;;;;;;;;11.10;1.00;;;;;;5071354;28;19948;-80
2023/04/18 07:38:11;;;;;;;;;;;11.10;1.00;;;;;;5095241;28;19915;-80
2023/04/18 07:41:00;;;;;;;;;;;11.20;1.00;;;;;;5095594;28;19904;-80
2023/04/18 07:43:43;;;;;;;;;;;11.20;1.00;;;;;;5095839;28;19927;-80
2023/04/18 07:46:31;;;;;;;;;;;11.20;1.00;;;;;;5096611;28;19995;-80
2023/04/18 07:49:03;;;;;;;;;;;11.30;1.00;;;;;;5095553;28;19910;-80
2023/04/18 07:51:30;;;;;;;;;;;11.40;1.00;;;;;;5075451;28;19908;-80
2023/04/18 07:54:31;;;;;;;;;;;11.60;1.00;;;;;;5075382;28;19904;-80
2023/04/18 07:57:00;;;;;;;;;;;11.60;1.00;;;;;;5075461;28;19908;-80
2023/04/18 07:59:42;;;;;;;;;;;11.60;1.00;;;;;;5074816;28;19911;-80
2023/04/18 08:02:07;;;;;;;;;;;11.70;1.00;;;;;;5075597;28;20042;-75
2023/04/18 08:04:33;;;;;;;;;;;11.90;1.00;;;;;;5075354;28;19963;-75
2023/04/18 08:06:59;;;;;;;;;;;12.10;1.00;;;;;;5075101;28;19942;-75
2023/04/18 08:09:24;;;;;;;;;;;12.20;1.00;;;;;;5079741;28;19917;-75
2023/04/18 08:11:50;;;;;;;;;;;12.20;1.00;;;;;;5095552;28;19946;-75
2023/04/18 08:14:16;;;;;;;;;;;12.40;1.00;;;;;;5095363;28;19910;-75
2023/04/18 08:17:00;;;;;;;;;;;12.60;1.00;;;;;;5095335;28;19916;-80
2023/04/18 08:19:54;;;;;;;;;;;12.60;1.00;;;;;;5076789;28;19958;-80
2023/04/18 08:22:30;;;;;;;;;;;12.80;1.00;;;;;;5076554;28;19930;-80
2023/04/18 08:25:00;;;;;;;;;;;12.90;1.00;;;;;;5080152;28;19915;-80
2023/04/18 08:30:30;;;;;;;;;;;12.90;1.00;;;;;;5091644;28;19977;-75
2023/04/18 08:32:56;;;;;;;;;;;13.00;1.00;;;;;;5095032;28;19904;-75
2023/04/18 08:35:22;;;;;;;;;;;13.10;1.00;;;;;;5095057;28;19908;-75
2023/04/18 08:37:47;;;;;;;;;;;13.10;1.00;;;;;;5094918;28;19908;-75
2023/04/18 08:47:29;;;;;;;;;;;13.90;1.00;;;;;;5084344;28;19904;-75
2023/04/18 08:49:56;;;;;;;;;;;13.90;1.00;;;;;;5092711;28;19904;-75
2023/04/18 08:52:22;;;;;;;;;;;14.20;1.00;;;;;;5074457;28;19904;-75
2023/04/18 08:54:48;;;;;;;;;;;14.40;1.00;;;;;;5074358;28;19908;-75
2023/04/18 08:57:25;;;;;;;;;;;14.30;1.00;;;;;;5074427;28;19915;-75
2023/04/18 08:59:55;;;;;;;;;;;14.40;1.00;;;;;;5074367;28;19911;-75
2023/04/18 09:02:41;;;;;;;;;;;14.50;1.00;;;;;;5075092;28;19916;-75
2023/04/18 09:05:19;;;;;;;;;;;14.60;1.00;;;;;;5074200;28;19905;-75
2023/04/18 09:07:50;;;;;;;;;;;14.90;1.00;;;;;;5056402;28;20271;-76
2023/04/18 09:10:28;;;;;;;;;;;15.00;1.00;;;;;;5074316;28;19904;-75
2023/04/18 09:12:55;;;;;;;;;;;14.90;1.00;;;;;;5074268;28;19904;-75
2023/04/18 09:15:23;;;;;;;;;;;14.90;1.00;;;;;;5074807;28;19912;-75
2023/04/18 09:18:01;;;;;;;;;;;14.90;1.00;;;;;;5083735;28;19916;-80
2023/04/18 09:23:29;;;;;;;;;;;14.80;1.00;;;;;;5073690;28;19912;-80
2023/04/18 09:26:31;;;;;;;;;;;14.90;1.00;;;;;;5077018;28;19908;-79
2023/04/18 09:29:02;;;;;;;;;;;14.90;1.00;;;;;;5074092;28;19924;-80
2023/04/18 09:32:00;;;;;;;;;;;14.70;1.00;;;;;;5074567;28;19995;-82
2023/04/18 09:34:29;;;;;;;;;;;14.50;1.00;;;;;;5073576;28;20360;-79
2023/04/18 09:37:05;;;;;;;;;;;14.40;1.00;;;;;;5073712;28;19915;-82
2023/04/18 09:39:54;;;;;;;;;;;14.50;1.00;;;;;;5081153;28;19904;-81
2023/04/18 09:42:34;;;;;;;;;;;14.50;1.00;;;;;;5094292;28;20259;-82
2023/04/18 09:45:30;;;;;;;;;;;14.50;1.00;;;;;;5093869;28;19911;-82
2023/04/18 09:51:18;;;;;;;;;;;14.60;1.00;;;;;;5093644;28;19911;-82
2023/04/18 09:54:02;;;;;;;;;;;14.90;1.00;;;;;;5074143;28;19908;-82
2023/04/18 09:56:31;;;;;;;;;;;15.30;1.00;;;;;;5093735;28;20362;-82
2023/04/18 09:59:30;;;;;;;;;;;15.70;1.00;;;;;;5075799;28;20374;-82
2023/04/18 10:01:56;;;;;;;;;;;16.00;1.00;;;;;;5074007;28;19919;-82
2023/04/18 10:04:31;;;;;;;;;;;16.40;1.00;;;;;;5055710;28;19908;-82
2023/04/18 10:07:30;;;;;;;;;;;16.80;1.00;;;;;;5055486;28;20000;-81
2023/04/18 10:10:30;;;;;;;;;;;16.80;1.00;;;;;;5065431;28;19962;-81
2023/04/18 10:13:01;;;;;;;;;;;17.00;1.00;;;;;;5073381;28;19905;-82
2023/04/18 10:15:27;;;;;;;;;;;17.00;1.00;;;;;;5080638;28;19987;-82
2023/04/18 10:17:54;;;;;;;;;;;16.90;1.00;;;;;;5094198;28;20404;-83
2023/04/18 10:20:31;;;;;;;;;;;16.90;1.00;;;;;;5093419;28;19965;-83
2023/04/18 10:23:20;;;;;;;;;;;16.70;1.00;;;;;;5094577;28;19904;-83
2023/04/18 10:26:01;;;;;;;;;;;16.70;1.00;;;;;;5092693;28;19908;-82
2023/04/18 10:28:53;;;;;;;;;;;16.80;1.00;;;;;;5073727;28;19915;-83
2023/04/18 10:31:22;;;;;;;;;;;16.90;1.00;;;;;;5015794;28;19937;-83
2023/04/18 10:34:04;;;;;;;;;;;16.90;1.00;;;;;;5015268;28;20473;-83
2023/04/18 10:37:00;;;;;;;;;;;16.80;1.00;;;;;;4998444;28;19909;-83
2023/04/18 10:39:45;;;;;;;;;;;16.90;1.00;;;;;;5015483;28;19913;-84
2023/04/18 10:42:44;;;;;;;;;;;17.10;1.00;;;;;;5015609;28;19947;-81
2023/04/18 10:45:19;;;;;;;;;;;17.10;1.00;;;;;;4956349;29;20341;-81
2023/04/18 10:51:10;;;;;;;;;;;17.00;1.00;;;;;;4957474;29;19913;-91
2023/04/18 10:56:38;;;;;;;;;;;16.70;1.00;;;;;;4957610;29;19913;-90
2023/04/18 10:59:30;;;;;;;;;;;16.60;1.00;;;;;;4941390;29;19906;-91
2023/04/18 11:02:20;;;;;;;;;;;16.60;1.00;;;;;;4957606;29;19953;-90
2023/04/18 11:05:03;;;;;;;;;;;16.80;1.00;;;;;;4937984;29;19907;-91
2023/04/18 11:08:00;;;;;;;;;;;16.90;1.00;;;;;;4925319;29;19910;-92
2023/04/18 11:14:00;;;;;;;;;;;17.20;1.00;;;;;;4956894;29;19913;-92
2023/04/18 11:16:31;;;;;;;;;;;17.20;1.00;;;;;;4953593;28;19998;-92
2023/04/18 11:19:16;;;;;;;;;;;17.20;1.00;;;;;;4975653;28;19934;-86
2023/04/18 11:22:01;;;;;;;;;;;17.10;1.00;;;;;;5010578;28;20023;-85
2023/04/18 11:24:30;;;;;;;;;;;17.20;1.00;;;;;;5018014;28;19909;-85
2023/04/18 11:27:30;;;;;;;;;;;17.30;1.00;;;;;;5025499;28;20000;-84
2023/04/18 11:30:00;;;;;;;;;;;17.30;1.00;;;;;;5010447;28;19960;-85
2023/04/18 11:32:32;;;;;;;;;;;17.50;1.00;;;;;;5014846;28;19955;-92
2023/04/18 11:35:30;;;;;;;;;;;17.70;1.00;;;;;;5013708;28;19909;-92
2023/04/18 11:38:00;;;;;;;;;;;18.00;1.00;;;;;;5014798;28;19944;-93
2023/04/18 11:40:30;;;;;;;;;;;18.20;1.00;;;;;;5014942;28;19964;-92
2023/04/18 11:43:30;;;;;;;;;;;18.20;1.00;;;;;;5076866;28;19904;-92
2023/04/18 11:46:12;;;;;;;;;;;18.20;1.00;;;;;;5061183;28;19908;-92
2023/04/18 11:48:49;;;;;;;;;;;18.10;1.00;;;;;;5072757;28;19973;-85
2023/04/18 11:51:32;;;;;;;;;;;17.70;1.00;;;;;;5093082;28;19951;-85
2023/04/18 11:54:18;;;;;;;;;;;17.60;1.00;;;;;;5058099;28;19915;-85
2023/04/18 11:56:49;;;;;;;;;;;17.60;1.00;;;;;;5075707;28;20263;-85
2023/04/18 11:59:37;;;;;;;;;;;17.40;1.00;;;;;;5057861;28;19989;-84
2023/04/18 12:02:07;;;;;;;;;;;17.30;1.00;;;;;;5077554;28;19919;-85
2023/04/18 12:05:10;;;;;;;;;;;17.40;1.00;;;;;;5077989;28;20271;-92
2023/04/18 12:07:49;;;;;;;;;;;17.40;1.00;;;;;;5017441;28;19905;-87
2023/04/18 12:10:20;;;;;;;;;;;17.50;1.00;;;;;;5004740;28;19909;-87
2023/04/18 12:15:55;;;;;;;;;;;18.10;1.00;;;;;;5025884;28;20002;-75
2023/04/18 12:18:22;;;;;;;;;;;18.50;1.00;;;;;;5012831;28;20316;-74
2023/04/18 12:20:49;;;;;;;;;;;18.50;1.00;;;;;;5031359;28;19905;-74
2023/04/18 12:23:33;;;;;;;;;;;18.50;1.00;;;;;;5013983;28;19956;-74
2023/04/18 12:26:06;;;;;;;;;;;18.60;1.00;;;;;;5030190;28;19909;-73
2023/04/18 12:28:32;;;;;;;;;;;18.50;1.00;;;;;;5018798;28;19909;-74
2023/04/18 12:30:58;;;;;;;;;;;18.40;1.00;;;;;;5017928;28;19960;-73
2023/04/18 12:33:23;;;;;;;;;;;18.20;1.00;;;;;;5012913;28;19909;-73
2023/04/18 12:35:51;;;;;;;;;;;17.90;1.00;;;;;;5022496;28;20319;-74
2023/04/18 12:38:18;;;;;;;;;;;17.50;1.00;;;;;;5018728;28;20019;-74
2023/04/18 12:40:44;;;;;;;;;;;17.20;1.00;;;;;;5039279;28;19978;-74
2023/04/18 12:43:10;;;;;;;;;;;17.10;1.00;;;;;;5081214;28;20331;-74
2023/04/18 12:45:35;;;;;;;;;;;17.00;1.00;;;;;;5076999;28;20411;-74
2023/04/18 12:48:01;;;;;;;;;;;17.00;1.00;;;;;;5094708;28;20252;-74
2023/04/18 12:50:27;;;;;;;;;;;16.90;1.00;;;;;;5094720;28;19904;-74
2023/04/18 12:52:53;;;;;;;;;;;17.00;1.00;;;;;;5075541;28;19912;-74
2023/04/18 12:55:20;;;;;;;;;;;16.90;1.00;;;;;;5084223;28;19908;-74
2023/04/18 12:57:49;;;;;;;;;;;16.90;1.00;;;;;;5077632;28;20356;-74
2023/04/18 13:00:15;;;;;;;;;;;16.90;1.00;;;;;;5060697;28;19908;-74
2023/04/18 13:02:42;;;;;;;;;;;16.90;1.00;;;;;;5079309;28;19908;-74
2023/04/18 13:05:09;;;;;;;;;;;16.90;1.00;;;;;;5082512;28;19916;-71
2023/04/18 13:07:39;;;;;;;;;;;16.70;1.00;;;;;;5077618;28;20006;-71
2023/04/18 13:10:06;;;;;;;;;;;16.80;1.00;;;;;;5081253;28;19908;-71
2023/04/18 13:12:31;;;;;;;;;;;16.80;1.00;;;;;;5075166;28;19915;-71
2023/04/18 13:14:57;;;;;;;;;;;16.90;1.00;;;;;;5081823;28;19915;-71
2023/04/18 13:17:23;;;;;;;;;;;17.00;1.00;;;;;;5093238;28;19942;-70
2023/04/18 13:19:48;;;;;;;;;;;17.10;1.00;;;;;;5082438;28;19947;-70
2023/04/18 13:22:14;;;;;;;;;;;17.20;1.00;;;;;;5076953;28;19962;-70
2023/04/18 13:24:39;;;;;;;;;;;17.30;1.00;;;;;;5084577;28;20268;-71
2023/04/18 13:27:09;;;;;;;;;;;17.30;1.00;;;;;;5092460;28;19908;-70
2023/04/18 13:29:38;;;;;;;;;;;17.40;1.00;;;;;;5081179;28;19950;-70
2023/04/18 13:32:04;;;;;;;;;;;17.20;1.00;;;;;;5081987;28;19908;-71
2023/04/18 13:34:31;;;;;;;;;;;17.10;1.00;;;;;;5079958;28;19917;-72
2023/04/18 13:36:56;;;;;;;;;;;17.00;1.00;;;;;;5076368;28;19908;-70
2023/04/18 13:39:23;;;;;;;;;;;17.00;1.00;;;;;;5082218;28;19912;-70
2023/04/18 13:41:49;;;;;;;;;;;16.90;1.00;;;;;;5078130;28;20382;-70
2023/04/18 13:44:17;;;;;;;;;;;16.90;1.00;;;;;;5091614;28;20097;-70
2023/04/18 13:46:43;;;;;;;;;;;17.00;1.00;;;;;;5065435;28;19913;-71
2023/04/18 13:49:08;;;;;;;;;;;17.10;1.00;;;;;;5078372;28;19970;-70
2023/04/18 13:51:34;;;;;;;;;;;17.30;1.00;;;;;;5089954;28;20582;-70
2023/04/18 13:54:00;;;;;;;;;;;17.50;1.00;;;;;;5077125;28;19907;-70
2023/04/18 13:56:26;;;;;;;;;;;17.50;1.00;;;;;;5080278;28;19931;-70
2023/04/18 13:58:52;;;;;;;;;;;17.70;1.00;;;;;;5079150;28;19997;-70
2023/04/18 14:01:19;;;;;;;;;;;18.10;1.00;;;;;;5087483;28;19912;-71
2023/04/18 14:03:46;;;;;;;;;;;18.50;1.00;;;;;;5058758;28;20007;-71
2023/04/18 14:06:11;;;;;;;;;;;18.60;1.00;;;;;;5081208;28;20255;-71
2023/04/18 14:08:37;;;;;;;;;;;18.50;1.00;;;;;;5081366;28;19908;-71
2023/04/18 14:11:03;;;;;;;;;;;18.70;1.00;;;;;;5089756;28;19982;-71
2023/04/18 14:13:28;;;;;;;;;;;18.80;1.00;;;;;;5082373;28;19908;-71
2023/04/18 14:15:54;;;;;;;;;;;18.90;1.00;;;;;;5091092;28;19912;-71
2023/04/18 14:18:20;;;;;;;;;;;19.10;1.00;;;;;;5075211;28;19962;-71
2023/04/18 14:20:55;;;;;;;;;;;19.20;1.00;;;;;;5078947;28;19915;-74
2023/04/18 14:23:21;;;;;;;;;;;19.10;1.00;;;;;;5087345;28;19908;-74
2023/04/18 14:25:47;;;;;;;;;;;19.00;1.00;;;;;;5076613;28;20028;-74
2023/04/18 14:28:12;;;;;;;;;;;18.90;1.00;;;;;;5091852;28;20339;-74
2023/04/18 14:30:38;;;;;;;;;;;18.80;1.00;;;;;;5084378;28;20316;-74
2023/04/18 14:33:04;;;;;;;;;;;18.60;1.00;;;;;;5086887;28;20383;-74
2023/04/18 14:35:31;;;;;;;;;;;18.50;1.00;;;;;;5097284;28;19904;-71
2023/04/18 14:37:57;;;;;;;;;;;18.20;1.00;;;;;;5078839;28;20253;-74
2023/04/18 14:40:22;;;;;;;;;;;17.90;1.00;;;;;;5080021;28;19920;-72
2023/04/18 14:42:48;;;;;;;;;;;17.70;1.00;;;;;;5079418;28;20375;-71
2023/04/18 14:45:15;;;;;;;;;;;17.50;1.00;;;;;;5080610;28;20004;-72
2023/04/18 14:47:44;;;;;;;;;;;17.30;1.00;;;;;;5083814;28;19908;-72
2023/04/18 14:50:14;;;;;;;;;;;17.20;1.00;;;;;;5080678;28;19908;-72
2023/04/18 14:52:40;;;;;;;;;;;17.20;1.00;;;;;;5086457;28;20244;-73
2023/04/18 14:55:06;;;;;;;;;;;17.20;1.00;;;;;;5088550;28;20036;-73
2023/04/18 14:57:33;;;;;;;;;;;17.20;1.00;;;;;;5088488;28;19938;-74
2023/04/18 14:59:59;;;;;;;;;;;17.40;1.00;;;;;;5067943;28;19915;-73
2023/04/18 15:02:24;;;;;;;;;;;17.40;1.00;;;;;;5078805;28;19908;-72
2023/04/18 15:04:51;;;;;;;;;;;17.50;1.00;;;;;;5078487;28;19935;-71
2023/04/18 15:07:17;;;;;;;;;;;17.60;1.00;;;;;;5079415;28;19981;-72
2023/04/18 15:09:43;;;;;;;;;;;17.70;1.00;;;;;;5078410;28;19990;-73
2023/04/18 15:12:12;;;;;;;;;;;17.80;1.00;;;;;;5078668;28;19914;-75
2023/04/18 15:14:38;;;;;;;;;;;18.60;1.00;;;;;;5082672;28;19912;-74
2023/04/18 15:17:04;;;;;;;;;;;20.20;1.00;;;;;;5089891;28;20248;-75
2023/04/18 15:19:30;;;;;;;;;;;21.40;1.00;;;;;;5086610;28;19904;-75
2023/04/18 15:21:56;;;;;;;;;;;22.40;1.00;;;;;;5092246;28;20365;-71
2023/04/18 15:24:21;;;;;;;;;;;22.00;1.00;;;;;;5087174;28;19904;-71
2023/04/18 15:33:01;;;;;;;;;;;21.50;1.00;;;;;;5080012;28;19957;-88
2023/04/18 15:35:30;;;;;;;;;;;21.30;1.00;;;;;;5078789;28;19987;-85
2023/04/18 15:38:00;;;;;;;;;;;21.70;1.00;;;;;;5089281;28;19937;-84
2023/04/18 15:40:31;;;;;;;;;;;22.50;1.00;;;;;;5077983;28;19908;-85
2023/04/18 15:43:07;;;;;;;;;;;23.00;1.00;;;;;;5075652;28;20474;-85
2023/04/18 15:45:43;;;;;;;;;;;23.90;1.00;;;;;;5069090;28;19915;-84
2023/04/18 15:51:36;;;;;;;;;;;24.30;1.00;;;;;;5075643;28;20330;-86
2023/04/18 15:54:30;;;;;;;;;;;23.70;1.00;;;;;;5057413;28;19904;-81
2023/04/18 15:57:01;;;;;;;;;;;23.40;1.00;;;;;;5081882;28;19904;-85
2023/04/18 16:00:00;;;;;;;;;;;22.50;1.00;;;;;;5068584;28;19908;-82
2023/04/18 16:02:30;;;;;;;;;;;21.80;1.00;;;;;;5078573;28;19904;-84
2023/04/18 16:05:00;;;;;;;;;;;21.20;1.00;;;;;;5095364;28;20414;-85
2023/04/18 16:07:30;;;;;;;;;;;20.60;1.00;;;;;;5071678;28;19911;-83
2023/04/18 16:10:03;;;;;;;;;;;20.10;1.00;;;;;;5057854;28;19954;-85
2023/04/18 16:12:30;;;;;;;;;;;19.40;1.00;;;;;;5062070;28;19908;-84
2023/04/18 16:14:56;;;;;;;;;;;18.60;1.00;;;;;;5075461;28;19995;-85
2023/04/18 16:17:30;;;;;;;;;;;17.90;1.00;;;;;;5070783;28;19984;-85
2023/04/18 16:20:00;;;;;;;;;;;17.60;1.00;;;;;;5078019;28;19908;-82
2023/04/18 16:22:30;;;;;;;;;;;17.30;1.00;;;;;;5072929;28;19905;-85
2023/04/18 16:25:00;;;;;;;;;;;17.10;1.00;;;;;;5067024;28;19942;-83
2023/04/18 16:27:31;;;;;;;;;;;17.10;1.00;;;;;;5069125;28;19912;-82
2023/04/18 16:30:08;;;;;;;;;;;17.90;1.00;;;;;;5080006;28;19911;-87
2023/04/18 16:33:00;;;;;;;;;;;18.00;1.00;;;;;;5057746;28;19958;-84
2023/04/18 16:35:30;;;;;;;;;;;17.70;1.00;;;;;;5078247;28;19919;-86
2023/04/18 16:38:00;;;;;;;;;;;17.60;1.00;;;;;;5076547;28;19919;-84
2023/04/18 16:41:00;;;;;;;;;;;17.50;1.00;;;;;;5077656;28;19908;-86
2023/04/18 16:43:35;;;;;;;;;;;17.20;1.00;;;;;;5062133;28;20346;-84
2023/04/18 16:46:01;;;;;;;;;;;16.90;1.00;;;;;;5077617;28;19915;-84
2023/04/18 16:48:30;;;;;;;;;;;16.50;1.00;;;;;;5075707;28;19912;-85
2023/04/18 16:51:00;;;;;;;;;;;16.20;1.00;;;;;;5056917;28;19904;-86
2023/04/18 16:53:30;;;;;;;;;;;16.20;1.00;;;;;;5076562;28;19987;-86
2023/04/18 16:56:30;;;;;;;;;;;16.00;1.00;;;;;;5060950;28;19908;-86
2023/04/18 16:59:01;;;;;;;;;;;15.80;1.00;;;;;;5072331;28;19912;-86
2023/04/18 17:01:32;;;;;;;;;;;15.70;1.00;;;;;;5057615;28;20381;-85
2023/04/18 17:04:30;;;;;;;;;;;15.60;1.00;;;;;;5066075;28;19951;-84
2023/04/18 17:07:00;;;;;;;;;;;15.50;1.00;;;;;;5077535;28;19962;-83
2023/04/18 17:09:30;;;;;;;;;;;15.30;1.00;;;;;;5081941;28;19907;-82
2023/04/18 17:12:01;;;;;;;;;;;15.10;1.00;;;;;;5079097;28;19951;-81
2023/04/18 17:14:30;;;;;;;;;;;14.90;1.00;;;;;;5073923;28;19912;-81
2023/04/18 17:17:00;;;;;;;;;;;14.80;1.00;;;;;;5073236;28;20046;-82
2023/04/18 17:19:30;;;;;;;;;;;14.70;1.00;;;;;;5083658;28;19954;-82
2023/04/18 17:22:00;;;;;;;;;;;14.50;1.00;;;;;;5079872;28;19916;-83
2023/04/18 17:24:26;;;;;;;;;;;14.40;1.00;;;;;;5074981;28;19904;-82
2023/04/18 17:27:01;;;;;;;;;;;14.30;1.00;;;;;;5092827;28;19931;-84
2023/04/18 17:29:30;;;;;;;;;;;14.30;1.00;;;;;;5070345;28;19904;-82
2023/04/18 17:32:00;;;;;;;;;;;14.20;1.00;;;;;;5074134;28;19912;-86